sensor_id;sensor_type;location;lat;lon;timestamp;P1;durP1;ratioP1;P2;durP2;ratioP2
36009;SDS011;22076;52.182;5.404;2023-04-15T00:00:57;11.60;;;6.07;;
36009;SDS011;22076;52.182;5.404;2023-04-15T00:03:23;13.70;;;6.45;;
36009;SDS011;22076;52.182;5.404;2023-04-15T00:05:50;9.95;;;5.05;;
36009;SDS011;22076;52.182;5.404;2023-04-15T00:08:16;12.15;;;5.70;;
36009;SDS011;22076;52.182;5.404;2023-04-15T00:10:43;9.30;;;6.07;;
36009;SDS011;22076;52.182;5.404;2023-04-15T00:13:10;9.13;;;5.75;;
36009;SDS011;22076;52.182;5.404;2023-04-15T00:15:37;10.98;;;6.00;;
36009;SDS011;22076;52.182;5.404;2023-04-15T00:18:05;8.88;;;5.43;;
36009;SDS011;22076;52.182;5.404;2023-04-15T00:20:32;9.80;;;6.07;;
36009;SDS011;22076;52.182;5.404;2023-04-15T00:22:58;9.57;;;5.72;;
36009;SDS011;22076;52.182;5.404;2023-04-15T00:25:25;13.93;;;5.70;;
36009;SDS011;22076;52.182;5.404;2023-04-15T00:27:52;9.48;;;5.05;;
36009;SDS011;22076;52.182;5.404;2023-04-15T00:30:18;12.75;;;5.75;;
36009;SDS011;22076;52.182;5.404;2023-04-15T00:32:45;10.80;;;5.35;;
36009;SDS011;22076;52.182;5.404;2023-04-15T00:35:14;9.25;;;4.90;;
36009;SDS011;22076;52.182;5.404;2023-04-15T00:37:40;9.13;;;4.20;;
36009;SDS011;22076;52.182;5.404;2023-04-15T00:42:35;13.63;;;6.63;;
36009;SDS011;22076;52.182;5.404;2023-04-15T00:45:02;12.35;;;6.55;;
36009;SDS011;22076;52.182;5.404;2023-04-15T00:47:29;9.38;;;4.35;;
36009;SDS011;22076;52.182;5.404;2023-04-15T00:49:57;11.95;;;5.88;;
36009;SDS011;22076;52.182;5.404;2023-04-15T00:52:24;8.63;;;5.90;;
36009;SDS011;22076;52.182;5.404;2023-04-15T00:54:51;9.70;;;4.82;;
36009;SDS011;22076;52.182;5.404;2023-04-15T00:57:19;10.77;;;5.85;;
36009;SDS011;22076;52.182;5.404;2023-04-15T00:59:46;13.57;;;5.78;;
36009;SDS011;22076;52.182;5.404;2023-04-15T01:02:13;12.77;;;6.03;;
36009;SDS011;22076;52.182;5.404;2023-04-15T01:04:40;14.38;;;6.35;;
36009;SDS011;22076;52.182;5.404;2023-04-15T01:07:07;10.82;;;6.05;;
36009;SDS011;22076;52.182;5.404;2023-04-15T01:09:35;12.50;;;6.57;;
36009;SDS011;22076;52.182;5.404;2023-04-15T01:12:01;7.35;;;4.20;;
36009;SDS011;22076;52.182;5.404;2023-04-15T01:14:29;10.35;;;4.68;;
36009;SDS011;22076;52.182;5.404;2023-04-15T01:16:56;12.07;;;5.60;;
36009;SDS011;22076;52.182;5.404;2023-04-15T01:19:22;9.55;;;6.07;;
36009;SDS011;22076;52.182;5.404;2023-04-15T01:21:49;10.93;;;4.93;;
36009;SDS011;22076;52.182;5.404;2023-04-15T01:24:17;9.75;;;5.22;;
36009;SDS011;22076;52.182;5.404;2023-04-15T01:26:45;13.10;;;5.50;;
36009;SDS011;22076;52.182;5.404;2023-04-15T01:29:12;7.40;;;5.13;;
36009;SDS011;22076;52.182;5.404;2023-04-15T01:31:39;10.60;;;5.70;;
36009;SDS011;22076;52.182;5.404;2023-04-15T01:34:06;9.60;;;4.53;;
36009;SDS011;22076;52.182;5.404;2023-04-15T01:36:32;11.05;;;5.68;;
36009;SDS011;22076;52.182;5.404;2023-04-15T01:38:59;8.90;;;4.82;;
36009;SDS011;22076;52.182;5.404;2023-04-15T01:41:26;10.98;;;5.68;;
36009;SDS011;22076;52.182;5.404;2023-04-15T01:43:54;9.68;;;5.03;;
36009;SDS011;22076;52.182;5.404;2023-04-15T01:46:21;7.40;;;4.68;;
36009;SDS011;22076;52.182;5.404;2023-04-15T01:48:48;8.95;;;4.78;;
36009;SDS011;22076;52.182;5.404;2023-04-15T01:51:14;9.13;;;5.63;;
36009;SDS011;22076;52.182;5.404;2023-04-15T01:53:41;9.80;;;4.90;;
36009;SDS011;22076;52.182;5.404;2023-04-15T01:56:08;9.75;;;5.68;;
36009;SDS011;22076;52.182;5.404;2023-04-15T01:58:34;9.50;;;4.72;;
36009;SDS011;22076;52.182;5.404;2023-04-15T02:01:02;13.52;;;5.65;;
36009;SDS011;22076;52.182;5.404;2023-04-15T02:03:29;8.77;;;5.15;;
36009;SDS011;22076;52.182;5.404;2023-04-15T02:05:55;12.75;;;5.93;;
36009;SDS011;22076;52.182;5.404;2023-04-15T02:08:22;11.23;;;5.32;;
36009;SDS011;22076;52.182;5.404;2023-04-15T02:10:49;10.38;;;5.32;;
36009;SDS011;22076;52.182;5.404;2023-04-15T02:13:15;7.68;;;4.90;;
36009;SDS011;22076;52.182;5.404;2023-04-15T02:15:45;8.18;;;4.97;;
36009;SDS011;22076;52.182;5.404;2023-04-15T02:18:14;11.95;;;6.68;;
36009;SDS011;22076;52.182;5.404;2023-04-15T02:20:40;10.75;;;5.95;;
36009;SDS011;22076;52.182;5.404;2023-04-15T02:23:07;8.77;;;5.90;;
36009;SDS011;22076;52.182;5.404;2023-04-15T02:25:35;12.05;;;6.88;;
36009;SDS011;22076;52.182;5.404;2023-04-15T02:28:03;13.43;;;6.53;;
36009;SDS011;22076;52.182;5.404;2023-04-15T02:30:30;9.48;;;6.00;;
36009;SDS011;22076;52.182;5.404;2023-04-15T02:32:56;11.02;;;5.43;;
36009;SDS011;22076;52.182;5.404;2023-04-15T02:35:24;10.52;;;5.53;;
36009;SDS011;22076;52.182;5.404;2023-04-15T02:37:51;12.02;;;6.07;;
36009;SDS011;22076;52.182;5.404;2023-04-15T02:40:17;8.20;;;5.53;;
36009;SDS011;22076;52.182;5.404;2023-04-15T02:42:44;11.13;;;6.68;;
36009;SDS011;22076;52.182;5.404;2023-04-15T02:45:10;9.25;;;6.53;;
36009;SDS011;22076;52.182;5.404;2023-04-15T02:47:37;12.60;;;6.43;;
36009;SDS011;22076;52.182;5.404;2023-04-15T02:50:06;9.73;;;6.25;;
36009;SDS011;22076;52.182;5.404;2023-04-15T02:52:36;11.93;;;6.00;;
36009;SDS011;22076;52.182;5.404;2023-04-15T02:55:04;11.65;;;6.53;;
36009;SDS011;22076;52.182;5.404;2023-04-15T02:57:32;13.48;;;5.53;;
36009;SDS011;22076;52.182;5.404;2023-04-15T03:00:01;11.15;;;6.53;;
36009;SDS011;22076;52.182;5.404;2023-04-15T03:02:32;9.90;;;6.97;;
36009;SDS011;22076;52.182;5.404;2023-04-15T03:04:59;8.85;;;5.35;;
36009;SDS011;22076;52.182;5.404;2023-04-15T03:07:25;8.57;;;5.55;;
36009;SDS011;22076;52.182;5.404;2023-04-15T03:09:53;13.88;;;7.07;;
36009;SDS011;22076;52.182;5.404;2023-04-15T03:12:19;11.93;;;6.88;;
36009;SDS011;22076;52.182;5.404;2023-04-15T03:14:46;10.88;;;6.72;;
36009;SDS011;22076;52.182;5.404;2023-04-15T03:17:12;10.27;;;6.55;;
36009;SDS011;22076;52.182;5.404;2023-04-15T03:19:39;9.90;;;6.03;;
36009;SDS011;22076;52.182;5.404;2023-04-15T03:22:06;12.00;;;6.63;;
36009;SDS011;22076;52.182;5.404;2023-04-15T03:24:33;11.77;;;7.15;;
36009;SDS011;22076;52.182;5.404;2023-04-15T03:27:01;12.02;;;7.35;;
36009;SDS011;22076;52.182;5.404;2023-04-15T03:29:28;14.75;;;7.40;;
36009;SDS011;22076;52.182;5.404;2023-04-15T03:31:54;11.95;;;7.35;;
36009;SDS011;22076;52.182;5.404;2023-04-15T03:34:21;12.35;;;7.70;;
36009;SDS011;22076;52.182;5.404;2023-04-15T03:36:47;14.60;;;7.05;;
36009;SDS011;22076;52.182;5.404;2023-04-15T03:39:14;11.98;;;6.10;;
36009;SDS011;22076;52.182;5.404;2023-04-15T03:41:40;12.55;;;6.00;;
36009;SDS011;22076;52.182;5.404;2023-04-15T03:44:08;8.52;;;5.75;;
36009;SDS011;22076;52.182;5.404;2023-04-15T03:46:35;10.95;;;7.43;;
36009;SDS011;22076;52.182;5.404;2023-04-15T03:49:01;11.70;;;6.60;;
36009;SDS011;22076;52.182;5.404;2023-04-15T03:51:28;10.10;;;6.43;;
36009;SDS011;22076;52.182;5.404;2023-04-15T03:53:55;11.48;;;6.45;;
36009;SDS011;22076;52.182;5.404;2023-04-15T03:56:22;7.72;;;5.30;;
36009;SDS011;22076;52.182;5.404;2023-04-15T03:58:49;11.85;;;5.90;;
36009;SDS011;22076;52.182;5.404;2023-04-15T04:01:17;12.40;;;6.25;;
36009;SDS011;22076;52.182;5.404;2023-04-15T04:03:43;10.35;;;6.57;;
36009;SDS011;22076;52.182;5.404;2023-04-15T04:06:10;15.43;;;8.05;;
36009;SDS011;22076;52.182;5.404;2023-04-15T04:08:37;9.75;;;6.40;;
36009;SDS011;22076;52.182;5.404;2023-04-15T04:11:03;10.43;;;6.32;;
36009;SDS011;22076;52.182;5.404;2023-04-15T04:13:31;12.48;;;8.02;;
36009;SDS011;22076;52.182;5.404;2023-04-15T04:15:58;12.25;;;6.13;;
36009;SDS011;22076;52.182;5.404;2023-04-15T04:18:26;10.27;;;5.22;;
36009;SDS011;22076;52.182;5.404;2023-04-15T04:20:52;8.73;;;5.80;;
36009;SDS011;22076;52.182;5.404;2023-04-15T04:23:20;11.30;;;7.22;;
36009;SDS011;22076;52.182;5.404;2023-04-15T04:25:46;10.82;;;6.50;;
36009;SDS011;22076;52.182;5.404;2023-04-15T04:28:13;11.35;;;7.70;;
36009;SDS011;22076;52.182;5.404;2023-04-15T04:30:40;10.82;;;6.47;;
36009;SDS011;22076;52.182;5.404;2023-04-15T04:33:06;11.98;;;6.43;;
36009;SDS011;22076;52.182;5.404;2023-04-15T04:35:34;10.57;;;6.07;;
36009;SDS011;22076;52.182;5.404;2023-04-15T04:38:01;10.43;;;6.38;;
36009;SDS011;22076;52.182;5.404;2023-04-15T04:40:28;12.77;;;6.18;;
36009;SDS011;22076;52.182;5.404;2023-04-15T04:42:55;13.05;;;7.95;;
36009;SDS011;22076;52.182;5.404;2023-04-15T04:45:21;12.48;;;7.18;;
36009;SDS011;22076;52.182;5.404;2023-04-15T04:47:48;13.50;;;7.22;;
36009;SDS011;22076;52.182;5.404;2023-04-15T04:50:14;12.85;;;7.38;;
36009;SDS011;22076;52.182;5.404;2023-04-15T04:52:43;7.78;;;5.30;;
36009;SDS011;22076;52.182;5.404;2023-04-15T04:55:09;16.40;;;8.00;;
36009;SDS011;22076;52.182;5.404;2023-04-15T04:57:36;12.40;;;6.00;;
36009;SDS011;22076;52.182;5.404;2023-04-15T05:00:04;9.43;;;6.78;;
36009;SDS011;22076;52.182;5.404;2023-04-15T05:02:32;9.73;;;6.00;;
36009;SDS011;22076;52.182;5.404;2023-04-15T05:04:59;14.40;;;6.82;;
36009;SDS011;22076;52.182;5.404;2023-04-15T05:07:25;11.02;;;6.22;;
36009;SDS011;22076;52.182;5.404;2023-04-15T05:09:53;10.02;;;5.90;;
36009;SDS011;22076;52.182;5.404;2023-04-15T05:12:19;10.98;;;6.05;;
36009;SDS011;22076;52.182;5.404;2023-04-15T05:14:46;9.80;;;7.15;;
36009;SDS011;22076;52.182;5.404;2023-04-15T05:17:13;8.60;;;5.82;;
36009;SDS011;22076;52.182;5.404;2023-04-15T05:19:39;9.60;;;5.82;;
36009;SDS011;22076;52.182;5.404;2023-04-15T05:22:06;11.00;;;5.93;;
36009;SDS011;22076;52.182;5.404;2023-04-15T05:24:34;12.50;;;6.82;;
36009;SDS011;22076;52.182;5.404;2023-04-15T05:27:01;10.05;;;5.72;;
36009;SDS011;22076;52.182;5.404;2023-04-15T05:29:28;13.23;;;6.63;;
36009;SDS011;22076;52.182;5.404;2023-04-15T05:31:55;8.88;;;5.55;;
36009;SDS011;22076;52.182;5.404;2023-04-15T05:34:21;11.85;;;6.32;;
36009;SDS011;22076;52.182;5.404;2023-04-15T05:36:48;12.65;;;6.05;;
36009;SDS011;22076;52.182;5.404;2023-04-15T05:39:14;10.65;;;7.50;;
36009;SDS011;22076;52.182;5.404;2023-04-15T05:41:41;9.77;;;6.28;;
36009;SDS011;22076;52.182;5.404;2023-04-15T05:44:09;10.07;;;6.40;;
36009;SDS011;22076;52.182;5.404;2023-04-15T05:46:35;8.95;;;6.07;;
36009;SDS011;22076;52.182;5.404;2023-04-15T05:49:02;13.32;;;6.43;;
36009;SDS011;22076;52.182;5.404;2023-04-15T05:51:29;15.20;;;6.40;;
36009;SDS011;22076;52.182;5.404;2023-04-15T05:53:55;14.10;;;8.23;;
36009;SDS011;22076;52.182;5.404;2023-04-15T05:56:22;14.02;;;8.05;;
36009;SDS011;22076;52.182;5.404;2023-04-15T05:58:50;13.00;;;7.55;;
36009;SDS011;22076;52.182;5.404;2023-04-15T06:01:18;13.57;;;6.72;;
36009;SDS011;22076;52.182;5.404;2023-04-15T06:03:45;10.32;;;7.20;;
36009;SDS011;22076;52.182;5.404;2023-04-15T06:06:12;12.27;;;7.57;;
36009;SDS011;22076;52.182;5.404;2023-04-15T06:08:39;12.63;;;7.53;;
36009;SDS011;22076;52.182;5.404;2023-04-15T06:11:06;11.80;;;7.72;;
36009;SDS011;22076;52.182;5.404;2023-04-15T06:13:33;10.80;;;6.40;;
36009;SDS011;22076;52.182;5.404;2023-04-15T06:16:00;13.02;;;7.10;;
36009;SDS011;22076;52.182;5.404;2023-04-15T06:18:27;12.35;;;8.57;;
36009;SDS011;22076;52.182;5.404;2023-04-15T06:20:54;12.07;;;7.53;;
36009;SDS011;22076;52.182;5.404;2023-04-15T06:23:21;16.52;;;9.18;;
36009;SDS011;22076;52.182;5.404;2023-04-15T06:25:47;12.52;;;7.07;;
36009;SDS011;22076;52.182;5.404;2023-04-15T06:28:14;15.13;;;8.77;;
36009;SDS011;22076;52.182;5.404;2023-04-15T06:30:40;11.85;;;6.88;;
36009;SDS011;22076;52.182;5.404;2023-04-15T06:33:07;10.43;;;7.03;;
36009;SDS011;22076;52.182;5.404;2023-04-15T06:35:36;15.30;;;9.10;;
36009;SDS011;22076;52.182;5.404;2023-04-15T06:38:03;13.80;;;8.48;;
36009;SDS011;22076;52.182;5.404;2023-04-15T06:40:30;14.35;;;7.80;;
36009;SDS011;22076;52.182;5.404;2023-04-15T06:42:57;15.32;;;8.43;;
36009;SDS011;22076;52.182;5.404;2023-04-15T06:45:24;15.35;;;8.70;;
36009;SDS011;22076;52.182;5.404;2023-04-15T06:47:52;19.10;;;11.13;;
36009;SDS011;22076;52.182;5.404;2023-04-15T06:50:19;14.27;;;9.00;;
36009;SDS011;22076;52.182;5.404;2023-04-15T06:52:47;15.30;;;8.98;;
36009;SDS011;22076;52.182;5.404;2023-04-15T06:55:13;20.92;;;11.20;;
36009;SDS011;22076;52.182;5.404;2023-04-15T06:57:40;18.63;;;11.05;;
36009;SDS011;22076;52.182;5.404;2023-04-15T07:00:08;22.05;;;12.32;;
36009;SDS011;22076;52.182;5.404;2023-04-15T07:02:36;11.95;;;8.23;;
36009;SDS011;22076;52.182;5.404;2023-04-15T07:05:03;14.70;;;7.40;;
36009;SDS011;22076;52.182;5.404;2023-04-15T07:07:31;18.00;;;11.05;;
36009;SDS011;22076;52.182;5.404;2023-04-15T07:09:58;16.85;;;10.50;;
36009;SDS011;22076;52.182;5.404;2023-04-15T07:12:26;21.15;;;11.95;;
36009;SDS011;22076;52.182;5.404;2023-04-15T07:14:52;20.23;;;11.63;;
36009;SDS011;22076;52.182;5.404;2023-04-15T07:17:19;14.18;;;8.68;;
36009;SDS011;22076;52.182;5.404;2023-04-15T07:19:46;15.88;;;10.90;;
36009;SDS011;22076;52.182;5.404;2023-04-15T07:22:13;11.50;;;7.43;;
36009;SDS011;22076;52.182;5.404;2023-04-15T07:24:40;17.42;;;9.73;;
36009;SDS011;22076;52.182;5.404;2023-04-15T07:27:08;16.73;;;10.32;;
36009;SDS011;22076;52.182;5.404;2023-04-15T07:29:34;14.50;;;8.40;;
36009;SDS011;22076;52.182;5.404;2023-04-15T07:32:01;17.88;;;10.73;;
36009;SDS011;22076;52.182;5.404;2023-04-15T07:34:27;15.55;;;9.55;;
36009;SDS011;22076;52.182;5.404;2023-04-15T07:36:54;15.20;;;8.70;;
36009;SDS011;22076;52.182;5.404;2023-04-15T07:39:20;14.23;;;8.63;;
36009;SDS011;22076;52.182;5.404;2023-04-15T07:41:47;16.75;;;10.13;;
36009;SDS011;22076;52.182;5.404;2023-04-15T07:44:15;16.83;;;10.27;;
36009;SDS011;22076;52.182;5.404;2023-04-15T07:46:42;15.80;;;8.55;;
36009;SDS011;22076;52.182;5.404;2023-04-15T07:49:08;10.82;;;6.40;;
36009;SDS011;22076;52.182;5.404;2023-04-15T07:51:34;17.30;;;10.25;;
36009;SDS011;22076;52.182;5.404;2023-04-15T07:54:01;13.25;;;7.40;;
36009;SDS011;22076;52.182;5.404;2023-04-15T07:56:28;13.48;;;8.20;;
36009;SDS011;22076;52.182;5.404;2023-04-15T07:58:55;14.90;;;8.40;;
36009;SDS011;22076;52.182;5.404;2023-04-15T08:01:23;13.75;;;8.18;;
36009;SDS011;22076;52.182;5.404;2023-04-15T08:03:49;11.98;;;6.80;;
36009;SDS011;22076;52.182;5.404;2023-04-15T08:06:16;16.23;;;9.40;;
36009;SDS011;22076;52.182;5.404;2023-04-15T08:08:42;11.07;;;7.28;;
36009;SDS011;22076;52.182;5.404;2023-04-15T08:11:09;11.43;;;7.13;;
36009;SDS011;22076;52.182;5.404;2023-04-15T08:13:36;10.90;;;6.90;;
36009;SDS011;22076;52.182;5.404;2023-04-15T08:16:13;11.40;;;6.90;;
36009;SDS011;22076;52.182;5.404;2023-04-15T08:18:42;10.43;;;6.90;;
36009;SDS011;22076;52.182;5.404;2023-04-15T08:21:09;9.50;;;6.00;;
36009;SDS011;22076;52.182;5.404;2023-04-15T08:23:36;10.85;;;6.78;;
36009;SDS011;22076;52.182;5.404;2023-04-15T08:26:03;11.10;;;6.47;;
36009;SDS011;22076;52.182;5.404;2023-04-15T08:28:29;11.07;;;6.05;;
36009;SDS011;22076;52.182;5.404;2023-04-15T08:30:56;10.93;;;5.95;;
36009;SDS011;22076;52.182;5.404;2023-04-15T08:33:22;13.55;;;6.60;;
36009;SDS011;22076;52.182;5.404;2023-04-15T08:35:50;14.38;;;7.72;;
36009;SDS011;22076;52.182;5.404;2023-04-15T08:38:17;14.90;;;8.20;;
36009;SDS011;22076;52.182;5.404;2023-04-15T08:40:44;19.83;;;7.10;;
36009;SDS011;22076;52.182;5.404;2023-04-15T08:43:12;21.13;;;6.35;;
36009;SDS011;22076;52.182;5.404;2023-04-15T08:45:41;14.55;;;6.07;;
36009;SDS011;22076;52.182;5.404;2023-04-15T08:48:07;24.17;;;6.43;;
36009;SDS011;22076;52.182;5.404;2023-04-15T08:50:35;22.25;;;7.05;;
36009;SDS011;22076;52.182;5.404;2023-04-15T08:53:03;15.95;;;7.18;;
36009;SDS011;22076;52.182;5.404;2023-04-15T08:55:32;17.55;;;6.53;;
36009;SDS011;22076;52.182;5.404;2023-04-15T08:58:00;11.55;;;6.32;;
36009;SDS011;22076;52.182;5.404;2023-04-15T09:00:27;11.70;;;6.25;;
36009;SDS011;22076;52.182;5.404;2023-04-15T09:02:54;10.23;;;6.00;;
36009;SDS011;22076;52.182;5.404;2023-04-15T09:05:20;14.38;;;6.75;;
36009;SDS011;22076;52.182;5.404;2023-04-15T09:07:49;10.02;;;5.63;;
36009;SDS011;22076;52.182;5.404;2023-04-15T09:10:17;10.75;;;5.60;;
36009;SDS011;22076;52.182;5.404;2023-04-15T09:12:44;7.75;;;4.75;;
36009;SDS011;22076;52.182;5.404;2023-04-15T09:15:10;7.78;;;4.85;;
36009;SDS011;22076;52.182;5.404;2023-04-15T09:17:40;8.38;;;4.72;;
36009;SDS011;22076;52.182;5.404;2023-04-15T09:20:08;10.13;;;4.93;;
36009;SDS011;22076;52.182;5.404;2023-04-15T09:22:37;8.20;;;4.68;;
36009;SDS011;22076;52.182;5.404;2023-04-15T09:25:08;9.02;;;4.95;;
36009;SDS011;22076;52.182;5.404;2023-04-15T09:27:53;6.32;;;4.30;;
36009;SDS011;22076;52.182;5.404;2023-04-15T09:30:20;10.35;;;4.38;;
36009;SDS011;22076;52.182;5.404;2023-04-15T09:32:48;10.50;;;5.00;;
36009;SDS011;22076;52.182;5.404;2023-04-15T09:35:15;11.10;;;4.50;;
36009;SDS011;22076;52.182;5.404;2023-04-15T09:37:42;13.38;;;4.65;;
36009;SDS011;22076;52.182;5.404;2023-04-15T09:40:09;33.75;;;7.25;;
36009;SDS011;22076;52.182;5.404;2023-04-15T09:42:37;68.88;;;7.63;;
36009;SDS011;22076;52.182;5.404;2023-04-15T09:45:20;37.13;;;7.65;;
36009;SDS011;22076;52.182;5.404;2023-04-15T09:47:47;34.38;;;7.20;;
36009;SDS011;22076;52.182;5.404;2023-04-15T09:50:15;11.43;;;6.72;;
36009;SDS011;22076;52.182;5.404;2023-04-15T09:52:42;20.67;;;6.75;;
36009;SDS011;22076;52.182;5.404;2023-04-15T09:55:09;39.92;;;6.63;;
36009;SDS011;22076;52.182;5.404;2023-04-15T09:57:37;14.73;;;6.38;;
36009;SDS011;22076;52.182;5.404;2023-04-15T10:00:06;9.90;;;5.35;;
36009;SDS011;22076;52.182;5.404;2023-04-15T10:02:35;8.70;;;5.57;;
36009;SDS011;22076;52.182;5.404;2023-04-15T10:05:02;9.80;;;4.15;;
36009;SDS011;22076;52.182;5.404;2023-04-15T10:07:30;11.00;;;3.30;;
36009;SDS011;22076;52.182;5.404;2023-04-15T10:09:56;13.07;;;3.80;;
36009;SDS011;22076;52.182;5.404;2023-04-15T10:12:26;15.30;;;4.60;;
36009;SDS011;22076;52.182;5.404;2023-04-15T10:14:55;8.57;;;4.05;;
36009;SDS011;22076;52.182;5.404;2023-04-15T10:17:25;9.18;;;3.90;;
36009;SDS011;22076;52.182;5.404;2023-04-15T10:19:52;11.00;;;4.15;;
36009;SDS011;22076;52.182;5.404;2023-04-15T10:22:20;7.05;;;3.85;;
36009;SDS011;22076;52.182;5.404;2023-04-15T10:24:47;9.00;;;4.43;;
36009;SDS011;22076;52.182;5.404;2023-04-15T10:27:15;6.57;;;4.07;;
36009;SDS011;22076;52.182;5.404;2023-04-15T10:29:42;6.28;;;3.85;;
36009;SDS011;22076;52.182;5.404;2023-04-15T10:32:10;8.25;;;3.58;;
36009;SDS011;22076;52.182;5.404;2023-04-15T10:34:37;6.57;;;3.70;;
36009;SDS011;22076;52.182;5.404;2023-04-15T10:37:06;8.50;;;3.67;;
36009;SDS011;22076;52.182;5.404;2023-04-15T10:39:39;22.52;;;5.25;;
36009;SDS011;22076;52.182;5.404;2023-04-15T10:42:07;11.98;;;4.35;;
36009;SDS011;22076;52.182;5.404;2023-04-15T10:44:34;22.75;;;5.03;;
36009;SDS011;22076;52.182;5.404;2023-04-15T10:47:09;42.85;;;5.03;;
36009;SDS011;22076;52.182;5.404;2023-04-15T10:49:44;33.25;;;4.95;;
36009;SDS011;22076;52.182;5.404;2023-04-15T10:52:13;12.30;;;4.28;;
36009;SDS011;22076;52.182;5.404;2023-04-15T10:54:40;39.33;;;6.18;;
36009;SDS011;22076;52.182;5.404;2023-04-15T10:57:07;80.10;;;7.55;;
36009;SDS011;22076;52.182;5.404;2023-04-15T11:02:41;91.25;;;8.55;;
36009;SDS011;22076;52.182;5.404;2023-04-15T11:05:10;75.97;;;7.43;;
36009;SDS011;22076;52.182;5.404;2023-04-15T11:07:46;105.40;;;9.63;;
36009;SDS011;22076;52.182;5.404;2023-04-15T11:13:19;77.47;;;7.95;;
36009;SDS011;22076;52.182;5.404;2023-04-15T11:15:53;43.10;;;5.25;;
36009;SDS011;22076;52.182;5.404;2023-04-15T11:18:24;47.70;;;6.97;;
36009;SDS011;22076;52.182;5.404;2023-04-15T11:20:52;51.90;;;7.18;;
36009;SDS011;22076;52.182;5.404;2023-04-15T11:23:26;43.63;;;5.20;;
36009;SDS011;22076;52.182;5.404;2023-04-15T11:25:54;21.70;;;4.82;;
36009;SDS011;22076;52.182;5.404;2023-04-15T11:28:23;24.38;;;4.47;;
36009;SDS011;22076;52.182;5.404;2023-04-15T11:30:50;19.48;;;3.83;;
36009;SDS011;22076;52.182;5.404;2023-04-15T11:33:18;19.63;;;3.78;;
36009;SDS011;22076;52.182;5.404;2023-04-15T11:35:45;12.73;;;2.85;;
36009;SDS011;22076;52.182;5.404;2023-04-15T11:38:12;9.05;;;3.70;;
36009;SDS011;22076;52.182;5.404;2023-04-15T11:40:40;10.43;;;3.83;;
36009;SDS011;22076;52.182;5.404;2023-04-15T11:43:07;11.35;;;3.80;;
36009;SDS011;22076;52.182;5.404;2023-04-15T11:45:36;12.02;;;3.17;;
36009;SDS011;22076;52.182;5.404;2023-04-15T11:48:04;8.38;;;2.70;;
36009;SDS011;22076;52.182;5.404;2023-04-15T11:50:32;4.57;;;2.40;;
36009;SDS011;22076;52.182;5.404;2023-04-15T11:53:02;8.13;;;2.47;;
36009;SDS011;22076;52.182;5.404;2023-04-15T11:55:29;9.63;;;2.85;;
36009;SDS011;22076;52.182;5.404;2023-04-15T11:58:08;8.20;;;3.08;;
36009;SDS011;22076;52.182;5.404;2023-04-15T12:00:37;6.40;;;2.55;;
36009;SDS011;22076;52.182;5.404;2023-04-15T12:03:11;6.50;;;2.22;;
36009;SDS011;22076;52.182;5.404;2023-04-15T12:08:58;4.68;;;2.10;;
36009;SDS011;22076;52.182;5.404;2023-04-15T12:11:35;2.53;;;1.70;;
36009;SDS011;22076;52.182;5.404;2023-04-15T12:14:04;3.97;;;1.75;;
36009;SDS011;22076;52.182;5.404;2023-04-15T12:16:32;2.05;;;1.50;;
36009;SDS011;22076;52.182;5.404;2023-04-15T12:19:00;3.88;;;1.38;;
36009;SDS011;22076;52.182;5.404;2023-04-15T12:21:32;2.65;;;1.90;;
36009;SDS011;22076;52.182;5.404;2023-04-15T12:24:02;5.82;;;2.03;;
36009;SDS011;22076;52.182;5.404;2023-04-15T12:26:32;6.50;;;2.63;;
36009;SDS011;22076;52.182;5.404;2023-04-15T12:29:00;3.53;;;2.20;;
36009;SDS011;22076;52.182;5.404;2023-04-15T12:31:27;7.05;;;2.35;;
36009;SDS011;22076;52.182;5.404;2023-04-15T12:33:54;4.28;;;2.58;;
36009;SDS011;22076;52.182;5.404;2023-04-15T12:36:21;3.90;;;1.88;;
36009;SDS011;22076;52.182;5.404;2023-04-15T12:38:48;3.85;;;1.75;;
36009;SDS011;22076;52.182;5.404;2023-04-15T12:41:18;6.03;;;1.85;;
36009;SDS011;22076;52.182;5.404;2023-04-15T12:43:45;3.13;;;2.00;;
36009;SDS011;22076;52.182;5.404;2023-04-15T12:46:12;3.25;;;2.00;;
36009;SDS011;22076;52.182;5.404;2023-04-15T12:48:39;3.78;;;1.92;;
36009;SDS011;22076;52.182;5.404;2023-04-15T12:51:06;4.63;;;2.03;;
36009;SDS011;22076;52.182;5.404;2023-04-15T12:53:32;5.47;;;1.73;;
36009;SDS011;22076;52.182;5.404;2023-04-15T12:55:59;5.10;;;1.70;;
36009;SDS011;22076;52.182;5.404;2023-04-15T12:58:27;3.97;;;2.08;;
36009;SDS011;22076;52.182;5.404;2023-04-15T13:00:54;6.63;;;1.75;;
36009;SDS011;22076;52.182;5.404;2023-04-15T13:03:21;4.75;;;1.95;;
36009;SDS011;22076;52.182;5.404;2023-04-15T13:05:47;6.82;;;1.67;;
36009;SDS011;22076;52.182;5.404;2023-04-15T13:08:14;2.40;;;1.75;;
36009;SDS011;22076;52.182;5.404;2023-04-15T13:10:41;3.25;;;1.90;;
36009;SDS011;22076;52.182;5.404;2023-04-15T13:13:07;3.92;;;1.83;;
36009;SDS011;22076;52.182;5.404;2023-04-15T13:15:35;4.70;;;1.98;;
36009;SDS011;22076;52.182;5.404;2023-04-15T13:18:02;21.30;;;3.75;;
36009;SDS011;22076;52.182;5.404;2023-04-15T13:20:30;10.70;;;3.20;;
36009;SDS011;22076;52.182;5.404;2023-04-15T13:22:57;18.95;;;2.75;;
36009;SDS011;22076;52.182;5.404;2023-04-15T13:25:23;9.15;;;1.70;;
36009;SDS011;22076;52.182;5.404;2023-04-15T13:27:51;8.25;;;2.20;;
36009;SDS011;22076;52.182;5.404;2023-04-15T13:30:18;10.13;;;2.17;;
36009;SDS011;22076;52.182;5.404;2023-04-15T13:32:46;14.20;;;2.17;;
36009;SDS011;22076;52.182;5.404;2023-04-15T13:35:12;6.45;;;1.92;;
36009;SDS011;22076;52.182;5.404;2023-04-15T13:37:39;7.22;;;1.88;;
36009;SDS011;22076;52.182;5.404;2023-04-15T13:40:06;41.15;;;3.58;;
36009;SDS011;22076;52.182;5.404;2023-04-15T13:42:33;28.80;;;2.38;;
36009;SDS011;22076;52.182;5.404;2023-04-15T13:45:00;27.10;;;3.20;;
36009;SDS011;22076;52.182;5.404;2023-04-15T13:47:26;19.52;;;2.60;;
36009;SDS011;22076;52.182;5.404;2023-04-15T13:49:54;15.98;;;2.50;;
36009;SDS011;22076;52.182;5.404;2023-04-15T13:52:21;17.48;;;2.13;;
36009;SDS011;22076;52.182;5.404;2023-04-15T13:54:48;8.38;;;1.90;;
36009;SDS011;22076;52.182;5.404;2023-04-15T13:57:14;4.45;;;1.10;;
36009;SDS011;22076;52.182;5.404;2023-04-15T13:59:41;4.55;;;1.50;;
36009;SDS011;22076;52.182;5.404;2023-04-15T14:02:08;5.43;;;1.35;;
36009;SDS011;22076;52.182;5.404;2023-04-15T14:04:34;9.85;;;1.80;;
36009;SDS011;22076;52.182;5.404;2023-04-15T14:07:02;6.05;;;1.48;;
36009;SDS011;22076;52.182;5.404;2023-04-15T14:09:28;3.28;;;1.20;;
36009;SDS011;22076;52.182;5.404;2023-04-15T14:11:55;5.95;;;1.33;;
36009;SDS011;22076;52.182;5.404;2023-04-15T14:14:23;6.28;;;1.33;;
36009;SDS011;22076;52.182;5.404;2023-04-15T14:16:49;7.32;;;1.67;;
36009;SDS011;22076;52.182;5.404;2023-04-15T14:19:15;2.83;;;1.25;;
36009;SDS011;22076;52.182;5.404;2023-04-15T14:21:42;5.50;;;1.80;;
36009;SDS011;22076;52.182;5.404;2023-04-15T14:24:10;7.03;;;2.42;;
36009;SDS011;22076;52.182;5.404;2023-04-15T14:26:36;6.43;;;1.75;;
36009;SDS011;22076;52.182;5.404;2023-04-15T14:29:03;5.28;;;1.45;;
36009;SDS011;22076;52.182;5.404;2023-04-15T14:31:29;4.30;;;1.75;;
36009;SDS011;22076;52.182;5.404;2023-04-15T14:33:56;6.10;;;1.38;;
36009;SDS011;22076;52.182;5.404;2023-04-15T14:36:22;6.13;;;1.60;;
36009;SDS011;22076;52.182;5.404;2023-04-15T14:38:49;5.78;;;1.30;;
36009;SDS011;22076;52.182;5.404;2023-04-15T14:41:17;3.97;;;1.30;;
36009;SDS011;22076;52.182;5.404;2023-04-15T14:43:43;5.60;;;1.42;;
36009;SDS011;22076;52.182;5.404;2023-04-15T14:46:10;4.18;;;1.33;;
36009;SDS011;22076;52.182;5.404;2023-04-15T14:48:38;6.15;;;1.40;;
36009;SDS011;22076;52.182;5.404;2023-04-15T14:51:05;2.35;;;1.05;;